Time;durP1;ratioP1;P1;durP2;ratioP2;P2;SDS_P1;SDS_P2;PMS_P1;PMS_P2;Temp;Humidity;BMP_temperature;BMP_pressure;BME280_temperature;BME280_humidity;BME280_pressure;Samples;Min_cycle;Max_cycle;Signal;HPM_P1;HPM_P2
2022/03/20 07:02:23;;;;;;;;;;;;;;;;;;5094350;23;19934;-90
2022/03/20 07:04:51;;;;;;;;;;;;;;;;;;4966270;28;19926;-92
2022/03/20 07:07:18;;;;;;;;;;;;;;;;;;4970831;28;20298;-91
2022/03/20 07:09:44;;;;;;;;;;;;;;;;;;4940497;28;20358;-91
2022/03/20 07:12:11;;;;;;;;;;;;;;;;;;4954991;28;20391;-91
2022/03/20 07:14:38;;;;;;;;;;;;;;;;;;4954574;28;19929;-93
2022/03/20 07:17:09;;;;;;;;;;;;;;;;;;4970320;28;19935;-92
2022/03/20 07:19:37;;;;;;;;;;;;;;;;;;4955119;28;19974;-93
2022/03/20 07:22:05;;;;;;;;;;;;;;;;;;4955808;28;19932;-90
2022/03/20 07:24:35;;;;;;;;;;;;;;;;;;4973755;28;19950;-92
2022/03/20 07:29:49;;;;;;;;;;;;;;;;;;4970644;28;19926;-92
2022/03/20 07:32:16;;;;;;;;;;;;;;;;;;4970441;28;19930;-93
2022/03/20 07:34:46;;;;;;;;;;;;;;;;;;4952752;28;19938;-92
2022/03/20 07:37:21;;;;;;;;;;;;;;;;;;4968891;28;19980;-91
2022/03/20 07:39:50;;;;;;;;;;;;;;;;;;4959940;28;19933;-91
2022/03/20 07:42:23;;;;;;;;;;;;;;;;;;4974494;28;20512;-92
2022/03/20 07:44:50;;;;;;;;;;;;;;;;;;4975330;28;20474;-92
2022/03/20 07:47:19;;;;;;;;;;;;;;;;;;4974853;28;19926;-92
2022/03/20 07:49:47;;;;;;;;;;;;;;;;;;4976196;28;20345;-91
2022/03/20 07:52:14;;;;;;;;;;;;;;;;;;4975328;28;19948;-91
2022/03/20 07:54:41;;;;;;;;;;;;;;;;;;4962364;28;19949;-91
2022/03/20 07:57:07;;;;;;;;;;;;;;;;;;4974980;28;19930;-91
2022/03/20 07:59:35;;;;;;;;;;;;;;;;;;4971401;28;20379;-91
2022/03/20 08:02:02;;;;;;;;;;;;;;;;;;4975518;28;19930;-92
2022/03/20 08:04:31;;;;;;;;;;;;;;;;;;4975194;28;20344;-92
2022/03/20 08:06:58;;;;;;;;;;;;;;;;;;4966317;28;20016;-92
2022/03/20 08:09:28;;;;;;;;;;;;;;;;;;4977264;28;19958;-92
2022/03/20 08:11:55;;;;;;;;;;;;;;;;;;4976928;28;19932;-92
2022/03/20 08:14:26;;;;;;;;;;;;;;;;;;4974867;28;19926;-92
2022/03/20 08:16:53;;;;;;;;;;;;;;;;;;4975103;28;19926;-90
2022/03/20 08:19:22;;;;;;;;;;;;;;;;;;4963826;28;19926;-92
2022/03/20 08:21:50;;;;;;;;;;;;;;;;;;4971747;28;19930;-91
2022/03/20 08:24:17;;;;;;;;;;;;;;;;;;4975783;28;19932;-91
2022/03/20 08:26:47;;;;;;;;;;;;;;;;;;4975183;28;19926;-92
2022/03/20 08:29:17;;;;;;;;;;;;;;;;;;4973776;28;19943;-92
2022/03/20 08:31:49;;;;;;;;;;;;;;;;;;4966268;28;19938;-92
2022/03/20 08:34:16;;;;;;;;;;;;;;;;;;4974532;28;19930;-92
2022/03/20 08:36:44;;;;;;;;;;;;;;;;;;4975751;28;23199;-92
2022/03/20 08:39:16;;;;;;;;;;;;;;;;;;4976537;28;19926;-92
2022/03/20 08:41:43;;;;;;;;;;;;;;;;;;4976634;28;19933;-92
2022/03/20 08:44:10;;;;;;;;;;;;;;;;;;4976022;28;20006;-91
2022/03/20 08:46:37;;;;;;;;;;;;;;;;;;4976575;28;19926;-91
2022/03/20 08:49:07;;;;;;;;;;;;;;;;;;4974875;28;20458;-89
2022/03/20 08:51:34;;;;;;;;;;;;;;;;;;4971011;28;19927;-92
2022/03/20 08:54:01;;;;;;;;;;;;;;;;;;4974150;28;20429;-91
2022/03/20 08:56:28;;;;;;;;;;;;;;;;;;4971531;28;19926;-89
2022/03/20 08:58:55;;;;;;;;;;;;;;;;;;4962782;28;19933;-91
2022/03/20 09:01:22;;;;;;;;;;;;;;;;;;4973232;28;19926;-92
2022/03/20 09:03:50;;;;;;;;;;;;;;;;;;4975307;28;20342;-90
2022/03/20 09:06:17;;;;;;;;;;;;;;;;;;4973446;28;19926;-91
2022/03/20 09:08:53;;;;;;;;;;;;;;;;;;4972828;28;19933;-92
2022/03/20 09:11:21;;;;;;;;;;;;;;;;;;4973172;28;19926;-92
2022/03/20 09:13:48;;;;;;;;;;;;;;;;;;4958830;28;19933;-93
2022/03/20 09:19:03;;;;;;;;;;;;;;;;;;4972166;28;19938;-93
2022/03/20 09:21:32;;;;;;;69.97;38.40;;;;;;;;;;4972325;28;20064;-92
2022/03/20 09:24:01;;;;;;;70.97;38.63;;;;;;;;;;4972951;28;20081;-92
2022/03/20 09:26:28;;;;;;;67.43;38.87;;;;;;;;;;4972222;28;20109;-93
2022/03/20 09:28:57;;;;;;;72.90;40.35;;;;;;;;;;4975073;28;20378;-92
2022/03/20 09:31:26;;;;;;;64.90;38.13;;;;;;;;;;4967716;28;20050;-94
2022/03/20 09:33:53;;;;;;;62.63;35.20;;;;;;;;;;4971284;28;20043;-92
2022/03/20 09:36:21;;;;;;;64.72;36.92;;;;;;;;;;4974922;28;20066;-90
2022/03/20 09:38:49;;;;;;;68.72;36.30;;;;;;;;;;4976211;28;20081;-93
2022/03/20 09:41:17;;;;;;;59.78;37.22;;;;;;;;;;4959471;28;20723;-91
2022/03/20 09:43:46;;;;;;;68.30;37.10;;;;;;;;;;4969508;28;20050;-89
2022/03/20 09:46:20;;;;;;;67.55;37.67;;;;;;;;;;4969490;28;20046;-90
2022/03/20 09:48:48;;;;;;;61.63;36.33;;;;;;;;;;4969256;28;20062;-90
2022/03/20 09:51:15;;;;;;;64.80;33.85;;;;;;;;;;4970329;28;20043;-92
2022/03/20 09:53:41;;;;;;;61.90;33.85;;;;;;;;;;4958931;28;20073;-91
2022/03/20 09:56:12;;;;;;;66.30;36.85;;;;;;;;;;4968232;28;20047;-91
2022/03/20 09:58:39;;;;;;;56.28;33.90;;;;;;;;;;4968393;28;20051;-92
2022/03/20 10:01:08;;;;;;;56.95;33.65;;;;;;;;;;4957034;28;20168;-92
2022/03/20 10:03:36;;;;;;;63.22;33.92;;;;;;;;;;4968602;28;20110;-92
2022/03/20 10:06:06;;;;;;;58.20;32.55;;;;;;;;;;4954154;28;20051;-92
2022/03/20 10:08:39;;;;;;;57.17;33.33;;;;;;;;;;4970500;28;20514;-91
2022/03/20 10:11:28;;;;;;;60.42;34.03;;;;;;;;;;4946227;28;20047;-88
2022/03/20 10:14:32;;;;;;;122.90;42.42;;;;;;;;;;4932785;28;20057;-88
2022/03/20 10:17:40;;;;;;;65.07;34.13;;;;;;;;;;4931063;28;20158;-87
2022/03/20 10:20:15;;;;;;;60.65;33.00;;;;;;;;;;4958450;28;20129;-92
2022/03/20 10:22:50;;;;;;;62.65;34.17;;;;;;;;;;4945802;28;21691;-91
2022/03/20 10:25:17;;;;;;;57.90;34.03;;;;;;;;;;4979811;28;20108;-91
2022/03/20 10:27:57;;;;;;;61.00;32.97;;;;;;;;;;4970246;28;20081;-92
2022/03/20 10:30:24;;;;;;;54.85;34.15;;;;;;;;;;4981805;28;20103;-93
2022/03/20 10:33:38;;;;;;;;;;;;;;;;;;;;;
2022/03/20 10:41:34;;;;;;;;;;;;;;;;;;;;;
2022/03/20 10:44:31;;;;;;;84.88;33.40;;;;;;;;;;4726189;29;20436;-89
2022/03/20 10:47:05;;;;;;;63.33;33.20;;;;;;;;;;4702918;30;20067;-89
2022/03/20 10:49:32;;;;;;;67.78;31.85;;;;;;;;;;4706543;30;20053;-89
2022/03/20 10:52:03;;;;;;;55.78;31.15;;;;;;;;;;4706386;30;20053;-82
2022/03/20 10:54:44;;;;;;;88.95;32.50;;;;;;;;;;4703036;30;20061;-91
2022/03/20 10:57:13;;;;;;;69.00;29.88;;;;;;;;;;4706368;30;20109;-84
2022/03/20 10:59:41;;;;;;;74.20;33.85;;;;;;;;;;4722532;30;20061;-87
2022/03/20 11:02:23;;;;;;;120.85;32.90;;;;;;;;;;4720753;30;20053;-86
2022/03/20 11:04:53;;;;;;;152.00;36.88;;;;;;;;;;4707536;30;20543;-87
2022/03/20 11:07:21;;;;;;;64.78;31.13;;;;;;;;;;4707203;30;20093;-85
2022/03/20 11:09:53;;;;;;;56.20;30.95;;;;;;;;;;4714288;30;20057;-86
2022/03/20 11:12:33;;;;;;;54.28;32.22;;;;;;;;;;4756167;30;20184;-88
2022/03/20 11:15:06;;;;;;;53.55;31.02;;;;;;;;;;4810152;28;20515;-90
2022/03/20 11:17:54;;;;;;;55.22;30.45;;;;;;;;;;4973216;28;20042;-89
2022/03/20 11:20:25;;;;;;;62.13;29.70;;;;;;;;;;4967267;28;20537;-86
2022/03/20 11:22:59;;;;;;;52.22;29.38;;;;;;;;;;4952315;28;20149;-86
2022/03/20 11:25:26;;;;;;;52.63;30.35;;;;;;;;;;4975940;28;20491;-86
2022/03/20 11:28:01;;;;;;;48.27;29.87;;;;;;;;;;4983818;28;20057;-87
2022/03/20 11:30:31;;;;;;;59.38;30.65;;;;;;;;;;4970683;28;20046;-91
2022/03/20 11:33:02;;;;;;;51.95;30.38;;;;;;;;;;4957486;28;20043;-90
2022/03/20 11:35:31;;;;;;;55.13;29.60;;;;;;;;;;4975080;28;20085;-88
2022/03/20 11:38:24;;;;;;;52.70;29.38;;;;;;;;;;4954479;28;20431;-90
2022/03/20 11:41:11;;;;;;;55.55;30.23;;;;;;;;;;4969874;28;20043;-88
2022/03/20 11:43:47;;;;;;;49.45;28.75;;;;;;;;;;4948733;28;20234;-88
2022/03/20 11:46:34;;;;;;;48.42;29.17;;;;;;;;;;4955430;28;20423;-90
2022/03/20 11:49:13;;;;;;;47.75;26.60;;;;;;;;;;4975795;28;20077;-90
2022/03/20 11:52:21;;;;;;;44.22;26.52;;;;;;;;;;4979026;28;20051;-90
2022/03/20 11:54:52;;;;;;;40.28;25.15;;;;;;;;;;4955504;28;20050;-91
2022/03/20 11:57:30;;;;;;;37.70;24.08;;;;;;;;;;4960740;28;20050;-91
2022/03/20 12:00:10;;;;;;;37.85;23.60;;;;;;;;;;4976925;28;20512;-88
2022/03/20 12:03:12;;;;;;;36.75;23.85;;;;;;;;;;4969357;28;20046;-86
2022/03/20 12:05:42;;;;;;;41.00;25.02;;;;;;;;;;4872189;29;20644;-89
2022/03/20 12:08:08;;;;;;;39.85;24.08;;;;;;;;;;4870727;29;20057;-87
2022/03/20 12:10:54;;;;;;;42.92;25.13;;;;;;;;;;4873027;29;20554;-85
2022/03/20 12:13:50;;;;;;;39.42;24.20;;;;;;;;;;4874404;29;20049;-89
2022/03/20 12:16:45;;;;;;;35.25;24.55;;;;;;;;;;4801200;29;20073;-88
2022/03/20 12:19:14;;;;;;;41.40;25.30;;;;;;;;;;4798710;29;20088;-89
2022/03/20 12:22:06;;;;;;;35.85;23.90;;;;;;;;;;4802362;29;20149;-90
2022/03/20 12:24:34;;;;;;;;;;;;;;;;;;4800328;29;20498;-90
2022/03/20 12:27:23;;;;;;;42.75;25.02;;;;;;;;;;4800101;29;20406;-90
2022/03/20 12:29:53;;;;;;;42.22;24.70;;;;;;;;;;4801412;29;20047;-92
2022/03/20 12:32:21;;;;;;;38.15;24.60;;;;;;;;;;4800741;29;20043;-90
2022/03/20 12:35:03;;;;;;;36.80;22.92;;;;;;;;;;4801466;29;20536;-90
2022/03/20 12:37:32;;;;;;;40.58;23.13;;;;;;;;;;4801052;29;20055;-90
2022/03/20 12:40:02;;;;;;;;;;;;;;;;;;4802328;29;20058;-91
2022/03/20 12:42:31;;;;;;;38.13;21.33;;;;;;;;;;4892320;29;19923;-91
2022/03/20 12:44:58;;;;;;;34.08;20.98;;;;;;;;;;4878615;29;20067;-91
2022/03/20 12:47:28;;;;;;;30.08;20.77;;;;;;;;;;4878202;29;20145;-94
2022/03/20 12:50:07;;;;;;;35.10;20.60;;;;;;;;;;4894420;29;20627;-92
2022/03/20 12:52:35;;;;;;;36.15;20.13;;;;;;;;;;4924703;28;20061;-91
2022/03/20 12:55:08;;;;;;;31.77;19.47;;;;;;;;;;4957567;28;20082;-91
2022/03/20 12:57:47;;;;;;;32.33;19.23;;;;;;;;;;4975941;28;20098;-92
2022/03/20 13:00:15;;;;;;;29.90;18.40;;;;;;;;;;4976148;28;20121;-91
2022/03/20 13:03:04;;;;;;;30.35;19.38;;;;;;;;;;4954592;28;20097;-92
2022/03/20 13:05:33;;;;;;;31.63;17.55;;;;;;;;;;4970388;28;20046;-92
2022/03/20 13:08:08;;;;;;;28.65;16.92;;;;;;;;;;4975806;28;20534;-90
2022/03/20 13:10:40;;;;;;;27.35;15.85;;;;;;;;;;4976488;28;20054;-91
2022/03/20 13:13:16;;;;;;;29.23;15.95;;;;;;;;;;4962027;28;20042;-91
2022/03/20 13:15:43;;;;;;;29.27;16.30;;;;;;;;;;4966313;28;20098;-92
2022/03/20 13:18:12;;;;;;;29.38;15.48;;;;;;;;;;4957452;28;20050;-91
2022/03/20 13:20:45;;;;;;;24.25;15.00;;;;;;;;;;4968703;28;20069;-91
2022/03/20 13:23:20;;;;;;;27.33;14.40;;;;;;;;;;4959605;28;20046;-88
2022/03/20 13:25:53;;;;;;;24.70;13.45;;;;;;;;;;4951789;28;20051;-89
2022/03/20 13:28:40;;;;;;;24.98;12.90;;;;;;;;;;4967965;28;20054;-90
2022/03/20 13:31:19;;;;;;;21.73;13.15;;;;;;;;;;4965362;28;20047;-89
2022/03/20 13:33:51;;;;;;;20.70;13.18;;;;;;;;;;4980653;28;20062;-91
2022/03/20 13:36:19;;;;;;;22.70;13.18;;;;;;;;;;4973267;28;20093;-92
2022/03/20 13:38:53;;;;;;;;;;;;;;;;;;4953607;28;20529;-91
2022/03/20 13:41:27;;;;;;;24.20;12.68;;;;;;;;;;4953307;28;19932;-90
2022/03/20 13:44:01;;;;;;;18.00;11.75;;;;;;;;;;4966323;28;20054;-87
2022/03/20 13:46:34;;;;;;;19.55;11.43;;;;;;;;;;4954351;28;20061;-90
2022/03/20 13:49:03;;;;;;;19.35;11.85;;;;;;;;;;4965701;28;20055;-90
2022/03/20 13:51:32;;;;;;;34.00;12.80;;;;;;;;;;4978705;28;20077;-93
2022/03/20 13:54:07;;;;;;;31.88;11.88;;;;;;;;;;4973479;28;20078;-91
2022/03/20 13:56:34;;;;;;;28.10;12.07;;;;;;;;;;4971392;28;20050;-93
2022/03/20 13:59:06;;;;;;;30.73;13.20;;;;;;;;;;4955208;28;20058;-90
2022/03/20 14:01:57;;;;;;;28.00;12.30;;;;;;;;;;4969820;28;20054;-92
2022/03/20 14:04:35;;;;;;;21.27;11.55;;;;;;;;;;4952108;28;20126;-90
2022/03/20 14:07:04;;;;;;;22.05;12.07;;;;;;;;;;4970532;28;20720;-93
2022/03/20 14:09:35;;;;;;;23.42;12.00;;;;;;;;;;4971757;28;20070;-91
2022/03/20 14:12:29;;;;;;;24.55;12.00;;;;;;;;;;4970998;28;20047;-91
2022/03/20 14:15:06;;;;;;;25.58;12.25;;;;;;;;;;4980165;28;20078;-92
2022/03/20 14:17:40;;;;;;;23.05;11.90;;;;;;;;;;4969262;28;20101;-90
2022/03/20 14:20:12;;;;;;;24.55;12.52;;;;;;;;;;4964020;28;20059;-91
2022/03/20 14:22:42;;;;;;;28.52;13.65;;;;;;;;;;4964467;28;20062;-90
2022/03/20 14:25:08;;;;;;;22.08;12.10;;;;;;;;;;4972441;28;20112;-88
2022/03/20 14:27:36;;;;;;;22.90;13.43;;;;;;;;;;4955148;28;20051;-92
2022/03/20 14:41:35;;;;;;;31.05;14.65;;;;;;;;;;4967251;28;20051;-92
2022/03/20 14:44:14;;;;;;;23.85;15.25;;;;;;;;;;4969560;28;20507;-93
2022/03/20 14:46:42;;;;;;;34.72;15.88;;;;;;;;;;4953144;28;20113;-92
2022/03/20 14:49:11;;;;;;;26.75;16.02;;;;;;;;;;4955881;28;20054;-91
2022/03/20 14:51:39;;;;;;;27.52;15.30;;;;;;;;;;4973512;28;20051;-93
2022/03/20 14:54:06;;;;;;;27.02;13.98;;;;;;;;;;4956478;28;20503;-91
2022/03/20 14:56:33;;;;;;;26.73;14.32;;;;;;;;;;4971997;28;20121;-87
2022/03/20 14:59:01;;;;;;;27.60;14.18;;;;;;;;;;4973320;28;20058;-89
2022/03/20 15:01:28;;;;;;;22.50;12.38;;;;;;;;;;4971963;28;20097;-91
2022/03/20 15:03:56;;;;;;;20.15;12.27;;;;;;;;;;4973309;28;20069;-90
2022/03/20 15:06:24;;;;;;;23.33;12.47;;;;;;;;;;4976018;28;20101;-90
2022/03/20 15:11:38;;;;;;;22.30;12.60;;;;;;;;;;4975847;28;20043;-90
2022/03/20 15:14:06;;;;;;;19.67;12.13;;;;;;;;;;4971266;28;20101;-92
2022/03/20 15:16:34;;;;;;;29.25;13.18;;;;;;;;;;4954556;28;20050;-90
2022/03/20 15:19:03;;;;;;;21.88;12.00;;;;;;;;;;4971101;28;20043;-91
2022/03/20 15:21:31;;;;;;;22.70;11.93;;;;;;;;;;4971184;28;20062;-92
2022/03/20 15:23:59;;;;;;;26.90;11.55;;;;;;;;;;4977295;28;20047;-92
2022/03/20 15:26:27;;;;;;;23.42;11.55;;;;;;;;;;4956767;28;20047;-90
2022/03/20 15:28:55;;;;;;;24.48;13.00;;;;;;;;;;4970334;28;20110;-91
2022/03/20 15:31:25;;;;;;;15.57;12.18;;;;;;;;;;4970296;28;20133;-90
2022/03/20 15:33:52;;;;;;;29.77;13.93;;;;;;;;;;4971368;28;20043;-89
2022/03/20 15:36:22;;;;;;;23.08;13.13;;;;;;;;;;4961426;28;20054;-91
2022/03/20 15:38:55;;;;;;;22.55;13.80;;;;;;;;;;4973717;28;20054;-92
2022/03/20 15:41:24;;;;;;;21.67;13.95;;;;;;;;;;4972168;28;20117;-90
2022/03/20 15:43:54;;;;;;;24.33;13.57;;;;;;;;;;4973957;28;20120;-91
2022/03/20 15:46:22;;;;;;;26.35;14.25;;;;;;;;;;4975466;28;20431;-93
2022/03/20 15:48:52;;;;;;;28.02;14.77;;;;;;;;;;4956690;28;20043;-90
2022/03/20 15:51:19;;;;;;;25.10;15.05;;;;;;;;;;4978588;28;20055;-89
2022/03/20 15:53:46;;;;;;;26.20;15.32;;;;;;;;;;4961636;28;20078;-89
2022/03/20 15:56:13;;;;;;;21.60;14.13;;;;;;;;;;4966271;28;20054;-89
2022/03/20 15:58:39;;;;;;;22.38;13.52;;;;;;;;;;4950977;28;20409;-89
2022/03/20 16:01:08;;;;;;;21.83;12.70;;;;;;;;;;4975269;28;20055;-90
2022/03/20 16:03:35;;;;;;;;;;;;;;;;;;4972565;28;20082;-90
2022/03/20 16:06:06;;;;;;;19.17;11.57;;;;;;;;;;4969764;28;19922;-92
2022/03/20 16:08:32;;;;;;;19.45;12.25;;;;;;;;;;4942170;28;20058;-89
2022/03/20 16:11:00;;;;;;;16.50;11.18;;;;;;;;;;4949039;28;20055;-91
2022/03/20 16:13:28;;;;;;;17.40;10.73;;;;;;;;;;4973102;28;20157;-92
2022/03/20 16:15:56;;;;;;;20.38;11.70;;;;;;;;;;4954216;28;20110;-88
2022/03/20 16:18:23;;;;;;;17.17;10.70;;;;;;;;;;4969360;28;20054;-89
2022/03/20 16:20:51;;;;;;;18.88;11.27;;;;;;;;;;4953767;28;20410;-93
2022/03/20 16:28:49;;;;;;;23.85;12.90;;;;;;;;;;4972693;28;20538;-93
2022/03/20 16:31:18;;;;;;;21.15;12.73;;;;;;;;;;4970916;28;20121;-86
2022/03/20 16:33:48;;;;;;;23.92;13.45;;;;;;;;;;4950669;28;20058;-91
2022/03/20 16:36:17;;;;;;;25.42;13.35;;;;;;;;;;4970830;28;20471;-92
2022/03/20 16:38:45;;;;;;;26.65;14.05;;;;;;;;;;4971543;28;20073;-92
2022/03/20 16:41:13;;;;;;;27.33;15.00;;;;;;;;;;4979393;28;20047;-91
2022/03/20 16:43:44;;;;;;;24.50;14.63;;;;;;;;;;4957949;28;20065;-90
2022/03/20 16:46:11;;;;;;;23.17;13.70;;;;;;;;;;4954106;28;20053;-90
2022/03/20 16:48:40;;;;;;;29.65;15.18;;;;;;;;;;4970802;28;20051;-90
2022/03/20 16:51:08;;;;;;;28.02;14.95;;;;;;;;;;4968361;28;20051;-89
2022/03/20 16:53:35;;;;;;;26.63;15.43;;;;;;;;;;4970486;28;20094;-92
2022/03/20 16:56:04;;;;;;;28.60;16.40;;;;;;;;;;4971379;28;20065;-89
2022/03/20 16:58:31;;;;;;;29.38;16.67;;;;;;;;;;4969342;28;20061;-90
2022/03/20 17:00:57;;;;;;;32.15;18.10;;;;;;;;;;4972346;28;20059;-90
2022/03/20 17:03:26;;;;;;;29.48;17.58;;;;;;;;;;4977374;28;20046;-90
2022/03/20 17:05:53;;;;;;;29.95;18.58;;;;;;;;;;4977432;28;20059;-92
2022/03/20 17:08:20;;;;;;;30.92;21.35;;;;;;;;;;4956950;28;20050;-91
2022/03/20 17:10:47;;;;;;;38.85;21.67;;;;;;;;;;4970546;28;20054;-91
2022/03/20 17:13:15;;;;;;;38.58;22.58;;;;;;;;;;4951069;28;20102;-92
2022/03/20 17:15:42;;;;;;;33.85;20.17;;;;;;;;;;4953429;28;20051;-92
2022/03/20 17:18:09;;;;;;;43.60;22.80;;;;;;;;;;4975758;28;20050;-92
2022/03/20 17:20:36;;;;;;;41.13;22.52;;;;;;;;;;4971846;28;20098;-91
2022/03/20 17:23:05;;;;;;;39.88;23.38;;;;;;;;;;4955844;28;20053;-92
2022/03/20 17:25:32;;;;;;;37.47;22.95;;;;;;;;;;4970881;28;20053;-91
2022/03/20 17:28:04;;;;;;;36.67;21.88;;;;;;;;;;4954465;28;20086;-91
2022/03/20 17:30:35;;;;;;;34.33;21.85;;;;;;;;;;4973913;28;20047;-93
2022/03/20 17:33:06;;;;;;;36.88;22.67;;;;;;;;;;4982919;28;20046;-91
2022/03/20 17:35:34;;;;;;;37.17;23.20;;;;;;;;;;4974351;28;20049;-92
2022/03/20 17:38:01;;;;;;;41.30;23.33;;;;;;;;;;4978766;28;20050;-90
2022/03/20 17:40:30;;;;;;;38.83;22.35;;;;;;;;;;4960805;28;20081;-91
2022/03/20 17:42:59;;;;;;;41.75;24.02;;;;;;;;;;4980483;28;20060;-90
2022/03/20 17:45:28;;;;;;;35.70;22.83;;;;;;;;;;4973783;28;20134;-91
2022/03/20 17:47:55;;;;;;;42.30;21.83;;;;;;;;;;4976160;28;20302;-91
2022/03/20 17:50:22;;;;;;;37.45;23.42;;;;;;;;;;4973882;28;20097;-91
2022/03/20 17:52:49;;;;;;;44.50;23.90;;;;;;;;;;4946449;28;20096;-93
2022/03/20 17:55:17;;;;;;;30.27;20.42;;;;;;;;;;4977098;28;20595;-90
2022/03/20 17:57:44;;;;;;;40.97;23.70;;;;;;;;;;4973137;28;20105;-92
2022/03/20 18:00:15;;;;;;;39.05;23.35;;;;;;;;;;4953955;28;20054;-90
2022/03/20 18:08:18;;;;;;;38.53;24.38;;;;;;;;;;4971239;28;20047;-93
2022/03/20 18:10:46;;;;;;;40.50;22.35;;;;;;;;;;4956049;28;20062;-92
2022/03/20 18:13:12;;;;;;;40.30;22.97;;;;;;;;;;4971830;28;20046;-91
2022/03/20 18:15:40;;;;;;;45.33;23.48;;;;;;;;;;4974254;28;20433;-94
2022/03/20 18:18:08;;;;;;;38.60;22.63;;;;;;;;;;4959353;28;20050;-93
2022/03/20 18:20:37;;;;;;;39.60;22.17;;;;;;;;;;4970229;28;20298;-92
2022/03/20 18:23:05;;;;;;;36.97;22.02;;;;;;;;;;4961266;28;20101;-85
2022/03/20 18:25:33;;;;;;;35.03;22.05;;;;;;;;;;4963104;28;20050;-84
2022/03/20 18:28:06;;;;;;;39.67;21.85;;;;;;;;;;4960820;28;20141;-85
2022/03/20 18:30:33;;;;;;;42.97;21.83;;;;;;;;;;4959173;28;20140;-84
2022/03/20 18:33:00;;;;;;;39.22;21.05;;;;;;;;;;4965174;28;20055;-84
2022/03/20 18:35:28;;;;;;;35.80;21.60;;;;;;;;;;4962327;28;20054;-85
2022/03/20 18:37:57;;;;;;;38.97;20.30;;;;;;;;;;4963839;28;20058;-83
2022/03/20 18:40:24;;;;;;;40.33;21.27;;;;;;;;;;4964797;28;20864;-84
2022/03/20 18:42:51;;;;;;;35.75;20.52;;;;;;;;;;4962356;28;20504;-85
2022/03/20 18:45:22;;;;;;;35.72;20.83;;;;;;;;;;4969982;28;20058;-84
2022/03/20 18:47:51;;;;;;;34.42;21.15;;;;;;;;;;4964470;28;20057;-84
2022/03/20 18:50:19;;;;;;;38.70;21.55;;;;;;;;;;4961433;28;20054;-84
2022/03/20 18:52:48;;;;;;;40.85;22.15;;;;;;;;;;4963139;28;20058;-84
2022/03/20 18:55:18;;;;;;;28.05;19.35;;;;;;;;;;4960870;28;20046;-85
2022/03/20 18:57:48;;;;;;;34.42;20.35;;;;;;;;;;4962188;28;20051;-84
2022/03/20 19:00:16;;;;;;;38.45;20.17;;;;;;;;;;4973689;28;20054;-85
2022/03/20 19:02:44;;;;;;;35.10;19.73;;;;;;;;;;4959597;28;20074;-84
2022/03/20 19:05:14;;;;;;;33.53;20.25;;;;;;;;;;4960575;28;20129;-84
2022/03/20 19:07:43;;;;;;;36.28;20.75;;;;;;;;;;4963791;28;20534;-85
2022/03/20 19:10:14;;;;;;;31.58;19.45;;;;;;;;;;4961189;28;20050;-84
2022/03/20 19:12:42;;;;;;;35.30;20.75;;;;;;;;;;4961565;28;20555;-85
2022/03/20 19:15:10;;;;;;;36.22;20.95;;;;;;;;;;4964097;28;20057;-83
2022/03/20 19:17:39;;;;;;;35.63;22.02;;;;;;;;;;4962682;28;20051;-84
2022/03/20 19:20:07;;;;;;;37.28;21.23;;;;;;;;;;4964347;28;20076;-84
2022/03/20 19:22:34;;;;;;;34.90;20.88;;;;;;;;;;4964189;28;20058;-84
2022/03/20 19:25:01;;;;;;;46.80;23.13;;;;;;;;;;4963156;28;20038;-83
2022/03/20 19:27:28;;;;;;;49.17;24.77;;;;;;;;;;4963220;28;20047;-85
2022/03/20 19:29:55;;;;;;;52.17;24.63;;;;;;;;;;4967458;28;20125;-84
2022/03/20 19:32:22;;;;;;;45.08;23.77;;;;;;;;;;4963546;28;20073;-84
2022/03/20 19:40:18;;;;;;;41.45;22.23;;;;;;;;;;4964715;28;20086;-82
2022/03/20 19:42:46;;;;;;;36.55;22.25;;;;;;;;;;4965215;28;20047;-83
2022/03/20 19:45:13;;;;;;;41.00;22.38;;;;;;;;;;4968607;28;20456;-83
2022/03/20 19:47:40;;;;;;;34.92;21.38;;;;;;;;;;4968381;28;20058;-83
2022/03/20 19:50:11;;;;;;;39.05;21.42;;;;;;;;;;4964331;28;20046;-82
2022/03/20 19:52:39;;;;;;;42.55;21.00;;;;;;;;;;4964102;28;20063;-82
2022/03/20 19:55:06;;;;;;;40.63;21.25;;;;;;;;;;4966927;28;20047;-83
2022/03/20 19:57:33;;;;;;;32.65;20.73;;;;;;;;;;4966436;28;20102;-83
2022/03/20 19:59:59;;;;;;;37.38;20.73;;;;;;;;;;4968755;28;20112;-82
2022/03/20 20:02:26;;;;;;;37.35;21.13;;;;;;;;;;4962383;28;20519;-82
2022/03/20 20:04:53;;;;;;;38.38;22.13;;;;;;;;;;4963120;28;20423;-83
2022/03/20 20:07:21;;;;;;;34.83;21.05;;;;;;;;;;4966005;28;20058;-84
2022/03/20 20:09:48;;;;;;;38.15;21.90;;;;;;;;;;4964643;28;20081;-83
2022/03/20 20:12:15;;;;;;;37.95;21.77;;;;;;;;;;4963590;28;20129;-84
2022/03/20 20:14:45;;;;;;;35.78;22.00;;;;;;;;;;4966461;28;20542;-82
2022/03/20 20:17:15;;;;;;;35.13;22.35;;;;;;;;;;4966532;28;20043;-82
2022/03/20 20:19:42;;;;;;;49.63;24.30;;;;;;;;;;4964477;28;20476;-82
2022/03/20 20:22:09;;;;;;;43.58;23.55;;;;;;;;;;4967571;28;20133;-82
2022/03/20 20:24:35;;;;;;;39.75;23.77;;;;;;;;;;4949562;28;20055;-82
2022/03/20 20:27:03;;;;;;;39.58;23.30;;;;;;;;;;4968889;28;20645;-82
2022/03/20 20:29:29;;;;;;;43.50;24.67;;;;;;;;;;4964661;28;20047;-82
2022/03/20 20:31:58;;;;;;;41.42;23.25;;;;;;;;;;4964194;28;20047;-84
2022/03/20 20:34:26;;;;;;;49.13;24.48;;;;;;;;;;4964720;28;20651;-85
2022/03/20 20:36:53;;;;;;;41.20;22.75;;;;;;;;;;4965147;28;20047;-82
2022/03/20 20:39:21;;;;;;;38.67;23.67;;;;;;;;;;4967415;28;20141;-83
2022/03/20 20:41:48;;;;;;;40.65;23.90;;;;;;;;;;4968147;28;20050;-84
2022/03/20 20:44:20;;;;;;;47.17;25.88;;;;;;;;;;4966051;28;20086;-84
2022/03/20 20:46:47;;;;;;;40.08;23.10;;;;;;;;;;4967214;28;20050;-84
2022/03/20 20:49:17;;;;;;;40.80;23.77;;;;;;;;;;4948651;28;20492;-84
2022/03/20 20:51:58;;;;;;;46.33;24.63;;;;;;;;;;4965287;28;20057;-84
2022/03/20 20:54:30;;;;;;;45.33;25.23;;;;;;;;;;4963923;28;20852;-85
2022/03/20 20:56:57;;;;;;;38.60;23.65;;;;;;;;;;4966226;28;20051;-84
2022/03/20 20:59:24;;;;;;;40.28;23.75;;;;;;;;;;4965474;28;20399;-84
2022/03/20 21:01:51;;;;;;;44.80;26.02;;;;;;;;;;4966948;28;20050;-84
2022/03/20 21:04:18;;;;;;;47.25;24.52;;;;;;;;;;4948999;28;20049;-81
2022/03/20 21:12:21;;;;;;;39.95;23.08;;;;;;;;;;4965832;28;20074;-83
2022/03/20 21:14:48;;;;;;;42.72;23.30;;;;;;;;;;4964440;28;20055;-83
2022/03/20 21:17:16;;;;;;;41.65;23.33;;;;;;;;;;4963904;28;20050;-82
2022/03/20 21:19:43;;;;;;;36.72;23.67;;;;;;;;;;4961907;28;20110;-80
2022/03/20 21:22:10;;;;;;;40.90;24.35;;;;;;;;;;4943481;28;20082;-84
2022/03/20 21:24:37;;;;;;;44.50;23.13;;;;;;;;;;4964182;28;20046;-84
2022/03/20 21:27:05;;;;;;;36.63;22.90;;;;;;;;;;4966121;28;20157;-83
2022/03/20 21:29:33;;;;;;;39.67;23.77;;;;;;;;;;4965514;28;20047;-84
2022/03/20 21:32:00;;;;;;;41.72;23.30;;;;;;;;;;4964785;28;20050;-83
2022/03/20 21:34:27;;;;;;;36.95;23.25;;;;;;;;;;4962865;28;20157;-83
2022/03/20 21:36:54;;;;;;;39.53;22.17;;;;;;;;;;4944637;28;20080;-83
2022/03/20 21:39:21;;;;;;;38.67;22.25;;;;;;;;;;4966181;28;20137;-83
2022/03/20 21:41:47;;;;;;;35.97;21.95;;;;;;;;;;4966046;28;20090;-83
2022/03/20 21:44:14;;;;;;;37.58;20.73;;;;;;;;;;4945316;28;20058;-84
2022/03/20 21:46:41;;;;;;;37.70;20.95;;;;;;;;;;4964454;28;20093;-84
2022/03/20 21:49:08;;;;;;;36.17;20.65;;;;;;;;;;4946171;28;20523;-83
2022/03/20 21:51:35;;;;;;;33.63;20.33;;;;;;;;;;4964796;28;20121;-84
2022/03/20 21:54:02;;;;;;;36.17;20.98;;;;;;;;;;4966294;28;20279;-83
2022/03/20 21:56:29;;;;;;;39.72;20.80;;;;;;;;;;4963910;28;20478;-83
2022/03/20 21:58:57;;;;;;;33.72;19.25;;;;;;;;;;4965044;28;20047;-84
2022/03/20 22:01:24;;;;;;;37.65;20.83;;;;;;;;;;4951706;28;20051;-83
2022/03/20 22:03:50;;;;;;;35.05;18.48;;;;;;;;;;4969086;28;20065;-82
2022/03/20 22:06:17;;;;;;;31.05;19.25;;;;;;;;;;4969864;28;20057;-81
2022/03/20 22:08:44;;;;;;;32.53;19.80;;;;;;;;;;4969897;28;20049;-83
2022/03/20 22:11:10;;;;;;;37.00;20.60;;;;;;;;;;4966445;28;20117;-82
2022/03/20 22:13:37;;;;;;;35.03;19.85;;;;;;;;;;4967438;28;20113;-82
2022/03/20 22:16:04;;;;;;;35.15;20.92;;;;;;;;;;4967102;28;20050;-81
2022/03/20 22:18:31;;;;;;;35.53;20.45;;;;;;;;;;4969677;28;20545;-82
2022/03/20 22:20:57;;;;;;;39.80;21.70;;;;;;;;;;4968802;28;20051;-82
2022/03/20 22:23:24;;;;;;;40.78;20.60;;;;;;;;;;4966191;28;20050;-82
2022/03/20 22:25:54;;;;;;;37.95;21.02;;;;;;;;;;4968490;28;20054;-83
2022/03/20 22:28:20;;;;;;;39.88;20.73;;;;;;;;;;4966673;28;20098;-83
2022/03/20 22:30:47;;;;;;;39.30;21.70;;;;;;;;;;4967271;28;20419;-83
2022/03/20 22:33:14;;;;;;;39.30;23.02;;;;;;;;;;4970511;28;20113;-82
2022/03/20 22:38:28;;;;;;;45.75;23.65;;;;;;;;;;4966665;28;20523;-83
2022/03/20 22:40:57;;;;;;;47.55;25.05;;;;;;;;;;4966664;28;20134;-83
2022/03/20 22:43:27;;;;;;;43.35;25.83;;;;;;;;;;4966509;28;20085;-83
2022/03/20 22:45:54;;;;;;;46.13;25.88;;;;;;;;;;4968105;28;20093;-83
2022/03/20 22:51:09;;;;;;;51.10;28.52;;;;;;;;;;4968155;28;20113;-82
2022/03/20 22:53:35;;;;;;;51.30;27.13;;;;;;;;;;4965784;28;20055;-83